Time;durP1;ratioP1;P1;durP2;ratioP2;P2;SDS_P1;SDS_P2;PMS_P1;PMS_P2;Temp;Humidity;BMP_temperature;BMP_pressure;BME280_temperature;BME280_humidity;BME280_pressure;Samples;Min_cycle;Max_cycle;Signal;HPM_P1;HPM_P2
2022/11/07 00:01:45;;;;;;;32.80;14.40;;;;;;;7.24;100.00;98856.44;4320319;33;20078;-74
2022/11/07 00:04:13;;;;;;;33.88;14.95;;;;;;;7.41;100.00;98882.53;4322366;33;20064;-76
2022/11/07 00:06:39;;;;;;;31.90;14.25;;;;;;;7.52;100.00;98889.75;4323818;33;20021;-76
2022/11/07 00:09:06;;;;;;;36.13;13.32;;;;;;;7.42;100.00;98852.03;4322066;33;20374;-76
2022/11/07 00:11:32;;;;;;;33.15;14.13;;;;;;;7.24;100.00;98852.94;4320976;33;20443;-76
2022/11/07 00:13:59;;;;;;;28.62;14.45;;;;;;;7.30;100.00;98872.63;4322367;33;20078;-76
2022/11/07 00:16:27;;;;;;;36.30;17.27;;;;;;;7.66;100.00;98886.81;4322772;33;20077;-74
2022/11/07 00:18:54;;;;;;;34.47;15.85;;;;;;;7.50;100.00;98893.69;4320879;33;20092;-75
2022/11/07 00:21:21;;;;;;;33.75;15.65;;;;;;;7.37;100.00;98857.25;4344423;32;20076;-74
2022/11/07 00:23:47;;;;;;;38.25;16.02;;;;;;;7.28;100.00;98846.88;4354115;32;20052;-75
2022/11/07 00:26:14;;;;;;;32.95;15.93;;;;;;;7.44;100.00;98890.09;4354713;32;20051;-75
2022/11/07 00:28:42;;;;;;;47.08;16.45;;;;;;;7.31;100.00;98842.09;4352997;32;20056;-75
2022/11/07 00:31:11;;;;;;;35.78;15.23;;;;;;;7.16;100.00;98835.34;4334350;32;20149;-75
2022/11/07 00:33:38;;;;;;;41.65;16.05;;;;;;;7.24;100.00;98888.59;4336015;33;20044;-75
2022/11/07 00:36:05;;;;;;;43.55;18.90;;;;;;;7.31;100.00;98895.66;4341766;32;20078;-75
2022/11/07 00:38:32;;;;;;;42.08;16.70;;;;;;;7.23;100.00;98894.97;4340587;33;20098;-74
2022/11/07 00:41:00;;;;;;;36.72;16.10;;;;;;;6.99;100.00;98882.56;4329459;33;20044;-74
2022/11/07 00:43:28;;;;;;;41.00;16.73;;;;;;;7.01;100.00;98886.66;4336791;33;20448;-74
2022/11/07 00:45:54;;;;;;;41.65;17.98;;;;;;;7.01;100.00;98889.34;4336125;33;20077;-74
2022/11/07 00:48:21;;;;;;;53.10;19.23;;;;;;;6.83;100.00;98863.47;4338188;33;20091;-73
2022/11/07 00:50:48;;;;;;;44.42;16.30;;;;;;;7.12;100.00;98893.09;4343915;33;20040;-75
2022/11/07 00:53:14;;;;;;;62.88;20.30;;;;;;;7.20;100.00;98875.88;4344985;33;20054;-75
2022/11/07 00:55:41;;;;;;;59.70;17.65;;;;;;;7.30;100.00;98868.06;4331770;33;20101;-74
2022/11/07 00:58:08;;;;;;;35.63;15.32;;;;;;;7.32;100.00;98875.88;4334848;33;20060;-75
2022/11/07 01:00:36;;;;;;;49.50;17.25;;;;;;;6.91;100.00;98876.53;4332252;33;20684;-75
2022/11/07 01:05:58;;;;;;;58.50;19.20;;;;;;;7.73;100.00;98850.81;4338498;33;20091;-74
2022/11/07 01:08:26;;;;;;;56.40;18.85;;;;;;;7.99;100.00;98843.31;4352819;32;20122;-76
2022/11/07 01:10:53;;;;;;;65.62;17.25;;;;;;;7.64;100.00;98842.34;4354393;32;20496;-75
2022/11/07 01:13:20;;;;;;;162.43;21.85;;;;;;;7.56;100.00;98845.38;4336249;33;20040;-75
2022/11/07 01:15:46;;;;;;;67.35;19.70;;;;;;;7.73;100.00;98833.94;4335421;33;20048;-75
2022/11/07 01:18:13;;;;;;;71.15;17.83;;;;;;;7.79;100.00;98816.91;4306425;33;20074;-76
2022/11/07 01:20:40;;;;;;;68.15;17.55;;;;;;;7.62;100.00;98825.66;4295021;33;20116;-76
2022/11/07 01:23:13;;;;;;;70.87;18.90;;;;;;;7.37;100.00;98788.44;4297051;33;20069;-75
2022/11/07 01:25:39;;;;;;;47.28;15.68;;;;;;;7.70;100.00;98823.69;4292292;33;20041;-74
2022/11/07 01:28:06;;;;;;;82.62;17.40;;;;;;;7.50;100.00;98819.53;4292874;33;20046;-75
2022/11/07 01:30:37;;;;;;;105.93;18.12;;;;;;;7.86;100.00;98817.56;4292478;33;20071;-76
2022/11/07 01:33:03;;;;;;;75.57;16.35;;;;;;;8.02;100.00;98826.75;4293668;33;20099;-76
2022/11/07 01:35:32;;;;;;;95.80;18.02;;;;;;;7.74;100.00;98814.94;4290993;33;20033;-75
2022/11/07 01:37:59;;;;;;;73.78;18.10;;;;;;;7.45;100.00;98779.19;4304198;33;20135;-75
2022/11/07 01:40:25;;;;;;;108.03;18.37;;;;;;;7.38;100.00;98805.31;4307652;33;20079;-76
2022/11/07 01:42:52;;;;;;;75.75;17.52;;;;;;;7.72;100.00;98773.31;4307862;33;20054;-76
2022/11/07 01:45:22;;;;;;;97.82;17.23;;;;;;;8.02;100.00;98796.44;4300800;33;20067;-75
2022/11/07 01:47:49;;;;;;;92.37;17.17;;;;;;;7.86;100.00;98795.31;4277952;33;20429;-74
2022/11/07 01:50:17;;;;;;;56.33;17.27;;;;;;;7.74;100.00;98792.69;4311079;33;20056;-75
2022/11/07 01:52:48;;;;;;;81.28;17.02;;;;;;;7.71;100.00;98782.44;4339395;33;20057;-76
2022/11/07 01:55:19;;;;;;;73.25;18.02;;;;;;;7.92;100.00;98789.81;4339531;33;20054;-76
2022/11/07 01:57:53;;;;;;;60.33;16.70;;;;;;;7.74;100.00;98779.28;4338804;33;20044;-74
2022/11/07 02:00:22;;;;;;;62.78;17.87;;;;;;;7.69;100.00;98790.72;4337394;33;20085;-74
2022/11/07 02:02:53;;;;;;;41.40;16.85;;;;;;;7.62;100.00;98752.50;4339198;33;20439;-75
2022/11/07 02:05:26;;;;;;;66.82;19.10;;;;;;;7.90;100.00;98781.22;4343252;32;20069;-76
2022/11/07 02:07:54;;;;;;;41.67;15.75;;;;;;;7.89;100.00;98768.84;4336398;33;20058;-75
2022/11/07 02:10:22;;;;;;;54.97;17.60;;;;;;;7.45;100.00;98768.47;4342036;32;20132;-76
2022/11/07 02:12:50;;;;;;;55.95;16.27;;;;;;;8.05;100.00;98761.09;4340495;32;20113;-76
2022/11/07 02:15:17;;;;;;;42.95;18.15;;;;;;;7.70;100.00;98760.16;4338219;33;20040;-76
2022/11/07 02:17:43;;;;;;;51.67;18.87;;;;;;;7.64;100.00;98761.09;4352728;32;20316;-75
2022/11/07 02:20:10;;;;;;;45.55;18.40;;;;;;;8.20;100.00;98756.03;4352656;32;20060;-76
2022/11/07 02:22:56;;;;;;;54.28;17.23;;;;;;;8.27;100.00;98754.00;4353647;32;20751;-76
2022/11/07 02:25:23;;;;;;;53.70;19.77;;;;;;;8.27;100.00;98759.37;4353422;32;20081;-76
2022/11/07 02:27:54;;;;;;;48.42;20.48;;;;;;;8.10;100.00;98704.87;4350596;32;20438;-76
2022/11/07 02:30:24;;;;;;;41.92;15.80;;;;;;;8.44;100.00;98758.59;4351567;32;20083;-76
2022/11/07 02:32:51;;;;;;;43.22;18.33;;;;;;;7.86;100.00;98721.06;4345502;32;20075;-76
2022/11/07 02:35:37;;;;;;;40.47;16.77;;;;;;;8.04;100.00;98716.56;4350418;32;20799;-77
2022/11/07 02:38:29;;;;;;;43.63;17.00;;;;;;;8.26;100.00;98755.03;4350529;32;20043;-76
2022/11/07 02:40:58;;;;;;;48.97;16.92;;;;;;;8.37;100.00;98748.81;4351021;32;20192;-76
2022/11/07 02:43:27;;;;;;;38.80;16.35;;;;;;;8.60;100.00;98738.19;4350319;32;20040;-76
2022/11/07 02:45:56;;;;;;;51.72;20.45;;;;;;;8.35;100.00;98707.19;4361291;32;20783;-75
2022/11/07 02:48:27;;;;;;;48.63;21.05;;;;;;;8.92;100.00;98738.47;4321676;33;20044;-75
2022/11/07 02:51:00;;;;;;;48.00;19.10;;;;;;;8.54;100.00;98731.97;4330779;33;20161;-76
2022/11/07 02:53:32;;;;;;;47.17;19.45;;;;;;;8.65;100.00;98728.37;4335113;33;20052;-75
2022/11/07 02:55:59;;;;;;;51.30;18.50;;;;;;;8.50;100.00;98728.13;4335377;33;20082;-75
2022/11/07 02:58:25;;;;;;;52.92;18.37;;;;;;;8.65;100.00;98706.91;4324235;33;20067;-75
2022/11/07 03:00:52;;;;;;;48.28;18.98;;;;;;;8.79;100.00;98701.19;4319773;33;20074;-75
2022/11/07 03:03:18;;;;;;;44.15;18.90;;;;;;;8.97;100.00;98714.34;4292156;33;20054;-75
2022/11/07 03:05:51;;;;;;;43.78;18.73;;;;;;;9.00;100.00;98719.22;4286635;33;20068;-75
2022/11/07 03:08:17;;;;;;;43.53;17.92;;;;;;;8.92;100.00;98725.03;4279035;33;20118;-75
2022/11/07 03:10:44;;;;;;;43.50;18.50;;;;;;;8.95;100.00;98721.84;4278106;33;20056;-75
2022/11/07 03:13:10;;;;;;;39.78;16.55;;;;;;;9.05;100.00;98722.00;4288210;33;20430;-76
2022/11/07 03:15:37;;;;;;;46.78;18.42;;;;;;;8.56;100.00;98713.72;4290401;33;20053;-74
2022/11/07 03:18:03;;;;;;;41.17;17.25;;;;;;;8.68;100.00;98679.56;4291020;33;20045;-76
2022/11/07 03:20:30;;;;;;;41.05;17.23;;;;;;;8.98;100.00;98715.97;4318613;33;20446;-75
2022/11/07 03:22:56;;;;;;;43.65;17.00;;;;;;;9.09;100.00;98693.59;4320933;33;20437;-75
2022/11/07 03:25:22;;;;;;;42.88;17.65;;;;;;;8.67;100.00;98683.31;4320465;33;20402;-75
2022/11/07 03:27:49;;;;;;;45.28;18.10;;;;;;;8.86;100.00;98689.22;4319893;33;20067;-75
2022/11/07 03:30:16;;;;;;;40.25;17.85;;;;;;;9.50;100.00;98668.28;4320102;33;20795;-75
2022/11/07 03:32:43;;;;;;;44.60;19.33;;;;;;;9.13;100.00;98701.16;4321207;33;20048;-75
2022/11/07 03:35:10;;;;;;;44.47;20.05;;;;;;;9.12;100.00;98705.69;4347167;33;20044;-75
2022/11/07 03:37:37;;;;;;;37.90;16.05;;;;;;;9.80;100.00;98738.50;4351910;32;20043;-75
2022/11/07 03:40:03;;;;;;;36.97;16.20;;;;;;;9.53;100.00;98740.34;4351338;33;20106;-76
2022/11/07 03:42:30;;;;;;;44.83;19.10;;;;;;;9.43;100.00;98720.34;4353357;32;20385;-76
2022/11/07 03:45:03;;;;;;;40.12;16.60;;;;;;;9.79;100.00;98736.88;4351607;32;20369;-76
2022/11/07 03:47:34;;;;;;;39.25;16.12;;;;;;;9.46;100.00;98740.50;4347253;32;20432;-76
2022/11/07 03:50:01;;;;;;;36.80;16.98;;;;;;;9.17;100.00;98724.56;4337620;33;20079;-76
2022/11/07 03:52:27;;;;;;;39.95;16.00;;;;;;;9.37;100.00;98739.34;4347250;33;20081;-77
2022/11/07 03:54:54;;;;;;;38.00;17.92;;;;;;;9.44;100.00;98724.66;4353416;33;20081;-77
2022/11/07 03:57:20;;;;;;;35.85;17.85;;;;;;;9.18;100.00;98685.91;4347483;32;20111;-75
2022/11/07 03:59:46;;;;;;;37.67;17.17;;;;;;;9.42;100.00;98678.41;4348127;33;20051;-76
2022/11/07 04:02:13;;;;;;;36.35;15.73;;;;;;;9.51;100.00;98672.56;4351000;33;20546;-77
2022/11/07 04:04:40;;;;;;;36.72;16.65;;;;;;;9.43;100.00;98655.84;4350897;33;20043;-77
2022/11/07 04:07:06;;;;;;;35.88;15.88;;;;;;;9.25;100.00;98656.16;4350406;32;20459;-76
2022/11/07 04:09:32;;;;;;;31.85;16.42;;;;;;;9.53;100.00;98657.03;4349131;32;20046;-76
2022/11/07 04:17:30;;;;;;;33.85;15.98;;;;;;;9.72;100.00;98666.38;4365017;32;20034;-76
2022/11/07 04:19:56;;;;;;;37.58;14.85;;;;;;;9.87;100.00;98689.09;4360193;32;20332;-76
2022/11/07 04:22:24;;;;;;;33.53;14.35;;;;;;;9.79;100.00;98696.53;4353115;32;20051;-76
2022/11/07 04:24:51;;;;;;;39.33;16.25;;;;;;;10.03;100.00;98693.56;4353014;32;20197;-76
2022/11/07 04:33:22;;;;;;;30.67;14.30;;;;;;;9.77;100.00;98701.38;4355590;32;20086;-75
2022/11/07 04:35:49;;;;;;;36.35;17.48;;;;;;;9.99;100.00;98660.19;4355738;32;20052;-75
2022/11/07 04:38:15;;;;;;;41.97;17.42;;;;;;;9.45;100.00;98696.72;4344736;33;20028;-75
2022/11/07 04:40:41;;;;;;;41.22;18.73;;;;;;;9.59;100.00;98699.84;4344911;33;20083;-75
2022/11/07 04:43:09;;;;;;;41.55;16.23;;;;;;;9.13;100.00;98690.41;4344709;33;20040;-76
2022/11/07 04:45:36;;;;;;;32.75;15.13;;;;;;;9.27;100.00;98676.34;4344455;33;20163;-76
2022/11/07 04:48:03;;;;;;;36.15;17.08;;;;;;;9.00;100.00;98702.28;4344875;33;20058;-76
2022/11/07 04:50:30;;;;;;;40.22;17.48;;;;;;;9.47;100.00;98695.66;4344791;33;20053;-76
2022/11/07 04:52:57;;;;;;;36.60;14.57;;;;;;;9.51;100.00;98686.00;4344611;33;20054;-76
2022/11/07 04:55:26;;;;;;;41.22;15.98;;;;;;;9.17;100.00;98653.91;4344523;33;20041;-76
2022/11/07 04:57:52;;;;;;;39.92;18.10;;;;;;;9.84;100.00;98693.09;4342853;33;20083;-76
2022/11/07 05:00:20;;;;;;;39.15;17.05;;;;;;;9.39;100.00;98683.47;4343587;33;20052;-76
2022/11/07 05:02:47;;;;;;;40.45;16.35;;;;;;;9.32;100.00;98651.41;4329632;33;20029;-75
2022/11/07 05:05:15;;;;;;;43.17;19.00;;;;;;;9.25;100.00;98673.09;4330154;33;20197;-75
2022/11/07 05:11:11;;;;;;;45.15;18.62;;;;;;;9.63;100.00;98692.88;4329562;33;20388;-75
2022/11/07 05:13:37;;;;;;;43.75;16.62;;;;;;;9.34;100.00;98681.53;4327977;33;20066;-75
2022/11/07 05:16:04;;;;;;;41.03;17.75;;;;;;;8.96;100.00;98669.75;4329558;33;20394;-75
2022/11/07 05:18:31;;;;;;;43.15;17.90;;;;;;;8.91;100.00;98693.84;4329510;33;20020;-74
2022/11/07 05:20:57;;;;;;;47.22;18.90;;;;;;;8.95;100.00;98699.53;4329146;33;20067;-75
2022/11/07 05:23:26;;;;;;;44.53;19.05;;;;;;;9.26;100.00;98700.78;4329589;33;20033;-74
2022/11/07 05:25:53;;;;;;;43.40;16.50;;;;;;;9.13;100.00;98701.94;4329241;33;20040;-75
2022/11/07 05:28:31;;;;;;;42.40;17.15;;;;;;;9.17;100.00;98700.38;4329311;33;20058;-76
2022/11/07 05:30:59;;;;;;;41.08;17.67;;;;;;;9.34;100.00;98662.72;4328965;33;20326;-77
2022/11/07 05:33:26;;;;;;;43.08;19.48;;;;;;;9.23;100.00;98658.28;4339421;32;20040;-76
2022/11/07 05:35:53;;;;;;;38.45;17.55;;;;;;;9.08;100.00;98678.53;4360799;32;20047;-75
2022/11/07 05:38:20;;;;;;;41.60;17.12;;;;;;;9.22;100.00;98694.25;4358841;32;20044;-76
2022/11/07 05:40:46;;;;;;;48.80;18.90;;;;;;;8.89;100.00;98659.19;4359321;32;20396;-76
2022/11/07 05:43:14;;;;;;;33.67;14.73;;;;;;;9.15;100.00;98634.56;4342299;33;20409;-76
2022/11/07 05:45:40;;;;;;;39.97;17.00;;;;;;;9.61;100.00;98686.16;4343725;33;20031;-75
2022/11/07 05:48:10;;;;;;;29.73;15.55;;;;;;;9.34;100.00;98692.28;4343663;33;20074;-76
2022/11/07 05:50:37;;;;;;;34.00;15.00;;;;;;;9.47;100.00;98712.59;4343439;33;20054;-76
2022/11/07 05:53:03;;;;;;;35.17;17.20;;;;;;;8.97;100.00;98663.34;4343447;33;20048;-75
2022/11/07 05:55:30;;;;;;;40.12;15.60;;;;;;;9.21;100.00;98660.41;4343454;33;20044;-76
2022/11/07 05:57:57;;;;;;;33.95;15.15;;;;;;;9.27;100.00;98675.53;4343429;33;20065;-76
2022/11/07 06:00:23;;;;;;;45.72;16.70;;;;;;;9.15;100.00;98715.13;4342440;33;20058;-76
2022/11/07 06:02:59;;;;;;;42.45;16.67;;;;;;;9.12;100.00;98678.03;4343158;33;20039;-76
2022/11/07 06:05:26;;;;;;;40.65;14.95;;;;;;;9.57;100.00;98717.28;4358126;32;20050;-76
2022/11/07 06:07:52;;;;;;;39.53;15.80;;;;;;;9.75;100.00;98708.88;4356736;32;20071;-77
2022/11/07 06:10:19;;;;;;;39.40;17.10;;;;;;;9.02;100.00;98684.88;4358327;32;20061;-77
2022/11/07 06:12:46;;;;;;;34.78;14.75;;;;;;;9.29;100.00;98708.34;4358091;32;20315;-77
2022/11/07 06:15:12;;;;;;;36.65;15.32;;;;;;;9.22;100.00;98723.81;4326867;33;20079;-76
2022/11/07 06:17:38;;;;;;;34.55;15.80;;;;;;;9.58;100.00;98686.66;4328798;33;20474;-76
2022/11/07 06:20:05;;;;;;;28.60;13.90;;;;;;;9.36;100.00;98678.59;4331821;33;20050;-77
2022/11/07 06:22:32;;;;;;;36.38;14.70;;;;;;;8.87;100.00;98671.22;4342891;33;20511;-77
2022/11/07 06:24:58;;;;;;;33.60;15.18;;;;;;;9.17;100.00;98696.88;4343533;33;20044;-76
2022/11/07 06:27:24;;;;;;;32.10;15.00;;;;;;;9.17;100.00;98702.25;4343372;33;20042;-75
2022/11/07 06:29:51;;;;;;;30.60;14.87;;;;;;;9.42;100.00;98689.16;4341649;33;20066;-77
2022/11/07 06:32:17;;;;;;;31.87;15.27;;;;;;;9.96;100.00;98719.87;4343158;33;20069;-77
2022/11/07 06:34:44;;;;;;;31.00;13.40;;;;;;;9.80;100.00;98733.13;4343224;33;20036;-77
2022/11/07 06:37:10;;;;;;;33.58;14.93;;;;;;;9.64;100.00;98734.03;4332035;33;20043;-79
2022/11/07 06:39:37;;;;;;;30.12;13.82;;;;;;;9.80;100.00;98717.00;4328509;33;20033;-78
2022/11/07 06:42:03;;;;;;;32.70;15.30;;;;;;;9.99;100.00;98736.31;4327768;33;20063;-81
2022/11/07 06:44:30;;;;;;;26.92;13.43;;;;;;;9.89;100.00;98735.37;4327856;33;20067;-78
2022/11/07 06:46:56;;;;;;;30.50;13.62;;;;;;;9.97;100.00;98722.31;4328780;33;20036;-76
2022/11/07 06:49:23;;;;;;;28.80;14.00;;;;;;;9.93;100.00;98731.13;4327514;33;20064;-78
2022/11/07 06:51:49;;;;;;;30.80;15.50;;;;;;;10.17;100.00;98694.78;4330350;33;20070;-79
2022/11/07 06:54:16;;;;;;;31.73;14.98;;;;;;;9.58;100.00;98697.41;4343109;33;20065;-77
2022/11/07 06:56:42;;;;;;;25.67;12.25;;;;;;;9.35;100.00;98744.97;4341784;33;20078;-77
2022/11/07 06:59:09;;;;;;;27.87;13.60;;;;;;;9.64;100.00;98734.03;4344604;32;20041;-78
2022/11/07 07:01:40;;;;;;;32.78;14.25;;;;;;;9.74;100.00;98739.50;4327304;33;20049;-76
2022/11/07 07:04:10;;;;;;;31.73;13.55;;;;;;;10.23;100.00;98740.56;4327931;33;20021;-76
2022/11/07 07:06:38;;;;;;;24.75;13.02;;;;;;;10.08;100.00;98714.31;4329617;33;20085;-78
2022/11/07 07:09:08;;;;;;;30.17;14.15;;;;;;;10.51;100.00;98713.41;4328326;33;20052;-76
2022/11/07 07:11:36;;;;;;;27.73;12.82;;;;;;;10.38;100.00;98742.63;4326786;33;20168;-76
2022/11/07 07:14:04;;;;;;;32.92;12.93;;;;;;;10.54;100.00;98699.41;4327076;33;20043;-77
2022/11/07 07:16:32;;;;;;;28.05;13.00;;;;;;;10.51;100.00;98740.34;4324415;33;20063;-78
2022/11/07 07:18:59;;;;;;;29.70;12.75;;;;;;;10.57;100.00;98730.41;4329464;33;20371;-77
2022/11/07 07:21:25;;;;;;;27.75;13.18;;;;;;;10.37;100.00;98741.84;4327943;33;20045;-76
2022/11/07 07:23:52;;;;;;;28.73;12.02;;;;;;;10.15;100.00;98713.06;4328204;33;20226;-76
2022/11/07 07:26:19;;;;;;;24.35;12.90;;;;;;;10.45;100.00;98746.75;4326450;33;20102;-76
2022/11/07 07:28:47;;;;;;;24.75;13.68;;;;;;;10.42;100.00;98739.19;4328187;33;20040;-77
2022/11/07 07:31:13;;;;;;;21.60;11.93;;;;;;;10.98;100.00;98736.09;4328402;33;20033;-76
2022/11/07 07:33:41;;;;;;;22.40;12.20;;;;;;;10.70;100.00;98742.63;4355163;33;20181;-78
2022/11/07 07:36:08;;;;;;;28.50;12.30;;;;;;;10.89;100.00;98730.38;4357472;33;20031;-77
2022/11/07 07:38:37;;;;;;;27.90;12.23;;;;;;;10.60;100.00;98745.25;4358571;33;20028;-75
2022/11/07 07:41:07;;;;;;;29.02;13.05;;;;;;;10.34;100.00;98736.97;4358329;33;20040;-77
2022/11/07 07:43:34;;;;;;;20.60;10.77;;;;;;;10.69;100.00;98712.22;4357406;33;20032;-77
2022/11/07 07:46:02;;;;;;;26.20;11.25;;;;;;;10.37;100.00;98739.12;4357420;33;20069;-78
2022/11/07 07:48:29;;;;;;;20.90;11.43;;;;;;;10.52;100.00;98696.19;4356157;33;20414;-76
2022/11/07 07:50:57;;;;;;;31.62;13.20;;;;;;;9.97;100.00;98697.28;4356649;33;20032;-76
2022/11/07 07:53:24;;;;;;;27.08;12.57;;;;;;;10.80;100.00;98707.72;4357911;32;20062;-76
2022/11/07 07:55:55;;;;;;;21.70;12.05;;;;;;;10.80;100.00;98721.19;4360061;32;20080;-77
2022/11/07 07:58:23;;;;;;;35.17;12.55;;;;;;;10.46;100.00;98691.81;4349112;32;20059;-77
2022/11/07 08:00:58;;;;;;;26.50;11.30;;;;;;;10.74;100.00;98724.91;4354807;32;20376;-76
2022/11/07 08:03:26;;;;;;;21.10;10.45;;;;;;;10.53;100.00;98732.00;4362262;32;20017;-77
2022/11/07 08:05:55;;;;;;;20.02;11.88;;;;;;;10.10;100.00;98698.75;4362236;32;20197;-77
2022/11/07 08:08:23;;;;;;;23.98;12.23;;;;;;;10.67;100.00;98746.66;4361267;32;20083;-77
2022/11/07 08:10:53;;;;;;;25.30;11.32;;;;;;;10.74;100.00;98746.44;4362052;32;20043;-77
2022/11/07 08:13:21;;;;;;;20.88;11.40;;;;;;;10.08;100.00;98747.41;4361897;32;20090;-75
2022/11/07 08:15:52;;;;;;;24.83;11.35;;;;;;;10.49;100.00;98749.72;4360434;32;20055;-79
2022/11/07 08:18:22;;;;;;;29.83;10.68;;;;;;;10.43;100.00;98713.87;4358627;32;20028;-78
2022/11/07 08:20:50;;;;;;;27.55;11.82;;;;;;;10.52;100.00;98760.78;4358644;32;20420;-78
2022/11/07 08:23:17;;;;;;;22.30;11.60;;;;;;;10.64;100.00;98757.13;4343943;33;20066;-77
2022/11/07 08:25:56;;;;;;;22.45;10.00;;;;;;;10.68;100.00;98758.22;4343956;33;20054;-77
2022/11/07 08:28:25;;;;;;;25.62;10.93;;;;;;;9.90;100.00;98758.53;4345116;33;20085;-77
2022/11/07 08:30:54;;;;;;;28.08;10.52;;;;;;;10.65;100.00;98731.81;4344748;33;20429;-79
2022/11/07 08:33:24;;;;;;;20.98;11.05;;;;;;;10.21;100.00;98721.19;4345826;33;20040;-78
2022/11/07 08:35:56;;;;;;;23.05;10.30;;;;;;;10.46;100.00;98767.19;4343608;33;20184;-78
2022/11/07 08:38:23;;;;;;;17.52;9.35;;;;;;;10.72;100.00;98762.03;4345608;33;20130;-78
2022/11/07 08:40:49;;;;;;;16.37;9.73;;;;;;;10.71;100.00;98760.41;4344225;33;20036;-77
2022/11/07 08:43:17;;;;;;;23.65;10.07;;;;;;;10.10;100.00;98758.75;4345140;33;20032;-79
2022/11/07 08:45:48;;;;;;;25.12;11.27;;;;;;;10.48;100.00;98759.69;4345253;33;20056;-79
2022/11/07 08:48:22;;;;;;;26.85;10.80;;;;;;;10.33;100.00;98763.03;4345836;33;20033;-79
2022/11/07 08:50:57;;;;;;;35.30;15.77;;;;;;;10.48;100.00;98781.22;4343750;33;20032;-80
2022/11/07 08:53:25;;;;;;;22.83;9.52;;;;;;;10.62;100.00;98770.03;4346035;33;20045;-76
2022/11/07 08:55:52;;;;;;;21.15;10.55;;;;;;;10.14;100.00;98764.44;4361284;32;20087;-80
2022/11/07 08:58:24;;;;;;;13.88;8.95;;;;;;;10.38;100.00;98767.66;4494646;27;20327;-78
2022/11/07 09:00:51;;;;;;;25.85;10.85;;;;;;;10.76;100.00;98770.41;4386275;32;20317;-78
2022/11/07 09:03:19;;;;;;;16.77;9.05;;;;;;;10.01;100.00;98733.38;4401374;32;20094;-79
2022/11/07 09:05:45;;;;;;;20.90;10.07;;;;;;;9.98;100.00;98750.00;4398215;32;20060;-78
2022/11/07 09:08:11;;;;;;;23.35;10.35;;;;;;;10.37;100.00;98741.84;4353974;32;20053;-80
2022/11/07 09:10:38;;;;;;;18.20;10.02;;;;;;;10.72;100.00;98711.69;4352982;32;20047;-79
2022/11/07 09:13:06;;;;;;;23.98;10.63;;;;;;;10.86;100.00;98733.59;4352569;32;20040;-77
2022/11/07 09:15:39;;;;;;;20.23;10.02;;;;;;;10.99;100.00;98761.16;4352766;32;20032;-80
2022/11/07 09:18:06;;;;;;;12.02;7.93;;;;;;;11.18;100.00;98761.53;4353559;32;20028;-81
2022/11/07 09:20:33;;;;;;;20.85;8.82;;;;;;;10.31;100.00;98734.75;4322915;33;20044;-80
2022/11/07 09:22:59;;;;;;;15.18;9.20;;;;;;;10.75;100.00;98774.16;4319055;33;20192;-78
2022/11/07 09:25:27;;;;;;;16.23;8.05;;;;;;;10.57;100.00;98772.69;4322101;33;20106;-79
2022/11/07 09:27:54;;;;;;;16.95;9.18;;;;;;;10.09;100.00;98761.69;4323392;33;20117;-80
2022/11/07 09:30:21;;;;;;;13.93;7.47;;;;;;;10.43;100.00;98770.38;4327354;33;20212;-78
2022/11/07 09:32:55;;;;;;;23.90;9.43;;;;;;;10.26;100.00;98783.94;4323272;33;20494;-77
2022/11/07 09:35:21;;;;;;;16.08;8.70;;;;;;;10.33;100.00;98735.31;4308684;33;20323;-78
2022/11/07 09:37:49;;;;;;;14.48;9.02;;;;;;;10.70;100.00;98781.13;4308177;33;20030;-78
2022/11/07 09:40:39;;;;;;;15.73;8.93;;;;;;;10.34;100.00;98775.44;4308088;33;20066;-77
2022/11/07 09:43:24;;;;;;;17.42;8.40;;;;;;;10.62;100.00;98775.41;4309654;33;20056;-78
2022/11/07 09:46:22;;;;;;;21.73;9.95;;;;;;;10.58;100.00;98740.12;4304686;33;20054;-79
2022/11/07 09:48:54;;;;;;;19.52;8.70;;;;;;;10.49;100.00;98772.06;4332924;33;20169;-77
2022/11/07 09:51:38;;;;;;;17.42;8.73;;;;;;;10.27;100.00;98739.00;4338192;33;20044;-80
2022/11/07 09:54:10;;;;;;;17.90;6.62;;;;;;;10.08;100.00;98750.09;4337571;33;20039;-80
2022/11/07 09:56:41;;;;;;;20.55;9.60;;;;;;;10.43;100.00;98740.78;4338743;33;20517;-77
2022/11/07 09:59:27;;;;;;;13.10;7.97;;;;;;;10.68;100.00;98750.97;4318681;33;20057;-77
2022/11/07 10:02:10;;;;;;;15.05;8.27;;;;;;;10.61;100.00;98780.00;4322009;33;20854;-77
2022/11/07 10:04:37;;;;;;;14.32;7.62;;;;;;;10.52;100.00;98782.31;4323863;33;20054;-77
2022/11/07 10:07:27;;;;;;;13.00;7.22;;;;;;;11.16;100.00;98737.56;4308116;33;20037;-76
2022/11/07 10:10:14;;;;;;;17.92;8.50;;;;;;;11.11;100.00;98769.88;4300791;33;20386;-78
2022/11/07 10:12:58;;;;;;;19.05;7.37;;;;;;;11.31;100.00;98777.25;4309314;33;20108;-76
2022/11/07 10:15:25;;;;;;;14.75;8.23;;;;;;;11.07;100.00;98776.81;4307961;33;20037;-77
2022/11/07 10:18:08;;;;;;;14.43;7.05;;;;;;;10.79;100.00;98733.00;4281300;33;20178;-77
2022/11/07 10:20:59;;;;;;;15.00;7.60;;;;;;;10.76;100.00;98765.03;4279150;33;20034;-77
2022/11/07 10:23:58;;;;;;;14.57;7.25;;;;;;;10.84;100.00;98767.25;4281154;33;20068;-76
2022/11/07 10:26:29;;;;;;;15.80;7.70;;;;;;;10.77;100.00;98740.53;4280827;33;20028;-76
2022/11/07 10:29:09;;;;;;;16.98;7.50;;;;;;;10.70;100.00;98691.47;4280317;33;20067;-76
2022/11/07 10:31:40;;;;;;;15.88;7.28;;;;;;;11.07;100.00;98696.00;4292768;33;20332;-75
2022/11/07 10:34:12;;;;;;;16.73;7.50;;;;;;;10.86;100.00;98765.91;4294689;33;20079;-76
2022/11/07 10:36:39;;;;;;;15.63;6.55;;;;;;;11.50;100.00;98764.16;4295374;33;20110;-77
2022/11/07 10:39:15;;;;;;;17.62;7.50;;;;;;;11.46;100.00;98773.84;4348156;32;20054;-77
2022/11/07 10:42:01;;;;;;;16.75;7.28;;;;;;;11.06;100.00;98765.25;4351010;32;20076;-76
2022/11/07 10:44:28;;;;;;;13.73;7.37;;;;;;;10.59;100.00;98781.31;4356310;32;20102;-76
2022/11/07 10:46:55;;;;;;;10.70;6.85;;;;;;;10.77;100.00;98772.84;4354122;32;20394;-76
2022/11/07 10:49:27;;;;;;;9.60;5.25;;;;;;;11.11;100.00;98723.25;4344124;32;20058;-76
2022/11/07 10:52:04;;;;;;;16.17;6.60;;;;;;;11.16;100.00;98780.66;4303142;33;20067;-76
2022/11/07 10:54:31;;;;;;;11.27;6.72;;;;;;;10.94;100.00;98718.03;4306676;33;20501;-76
2022/11/07 10:57:01;;;;;;;14.18;7.20;;;;;;;11.44;100.00;98766.03;4305356;33;20063;-77
2022/11/07 10:59:29;;;;;;;13.45;5.95;;;;;;;11.66;100.00;98727.28;4293770;33;20074;-76
2022/11/07 11:02:01;;;;;;;19.12;5.75;;;;;;;12.29;100.00;98759.59;4301235;33;20037;-76
2022/11/07 11:04:31;;;;;;;8.73;4.93;;;;;;;12.14;100.00;98713.66;4294722;33;20103;-77
2022/11/07 11:07:02;;;;;;;10.90;5.05;;;;;;;13.03;100.00;98776.34;4294430;33;20059;-73
2022/11/07 11:09:33;;;;;;;9.48;4.97;;;;;;;12.75;100.00;98729.09;4293845;33;20059;-76
2022/11/07 11:12:12;;;;;;;13.80;5.75;;;;;;;12.32;100.00;98748.25;4296766;33;20037;-75
2022/11/07 11:14:39;;;;;;;9.15;5.05;;;;;;;12.71;100.00;98755.84;4308303;33;20062;-75
2022/11/07 11:17:27;;;;;;;10.40;6.12;;;;;;;12.54;100.00;98766.13;4292675;33;20439;-76
2022/11/07 11:19:56;;;;;;;8.73;5.22;;;;;;;13.28;100.00;98747.66;4295091;33;20059;-76
2022/11/07 11:22:27;;;;;;;7.95;5.32;;;;;;;12.62;100.00;98776.38;4299609;33;20052;-76
2022/11/07 11:25:02;;;;;;;9.77;5.53;;;;;;;12.28;100.00;98790.34;4322885;33;20456;-76
2022/11/07 11:27:32;;;;;;;8.63;4.90;;;;;;;12.16;100.00;98770.91;4307505;33;20048;-76
2022/11/07 11:30:06;;;;;;;8.35;5.07;;;;;;;12.06;100.00;98776.25;4310106;33;20092;-75
2022/11/07 11:32:38;;;;;;;10.32;5.37;;;;;;;12.12;100.00;98769.81;4343613;32;20043;-75
2022/11/07 11:35:12;;;;;;;13.40;5.95;;;;;;;12.03;100.00;98779.50;4325248;33;20121;-77
2022/11/07 11:37:44;;;;;;;8.93;5.40;;;;;;;11.39;100.00;98720.16;4309550;33;20045;-75
2022/11/07 11:40:17;;;;;;;10.90;5.90;;;;;;;11.47;100.00;98745.78;4295242;33;20078;-76
2022/11/07 11:42:56;;;;;;;8.20;5.47;;;;;;;11.89;100.00;98788.06;4294498;33;20033;-76
2022/11/07 11:45:44;;;;;;;10.07;5.50;;;;;;;11.14;100.00;98720.84;4280288;33;20045;-76